sensor_id;sensor_type;location;lat;lon;timestamp;P1;durP1;ratioP1;P2;durP2;ratioP2
48881;SDS011;57063;51.406;-2.402;2023-03-31T00:01:34;572.30;;;131.07;;
48881;SDS011;57063;51.406;-2.402;2023-03-31T00:04:00;572.85;;;133.82;;
48881;SDS011;57063;51.406;-2.402;2023-03-31T00:06:28;594.47;;;145.10;;
48881;SDS011;57063;51.406;-2.402;2023-03-31T00:08:54;573.28;;;132.57;;
48881;SDS011;57063;51.406;-2.402;2023-03-31T00:11:20;580.38;;;133.15;;
48881;SDS011;57063;51.406;-2.402;2023-03-31T00:13:46;575.97;;;130.27;;
48881;SDS011;57063;51.406;-2.402;2023-03-31T00:16:12;574.78;;;132.18;;
48881;SDS011;57063;51.406;-2.402;2023-03-31T00:18:37;578.90;;;134.68;;
48881;SDS011;57063;51.406;-2.402;2023-03-31T00:21:12;571.38;;;132.07;;
48881;SDS011;57063;51.406;-2.402;2023-03-31T00:23:48;575.75;;;132.05;;
48881;SDS011;57063;51.406;-2.402;2023-03-31T00:26:17;573.42;;;130.35;;
48881;SDS011;57063;51.406;-2.402;2023-03-31T00:28:43;571.90;;;131.85;;
48881;SDS011;57063;51.406;-2.402;2023-03-31T00:31:08;576.72;;;134.68;;
48881;SDS011;57063;51.406;-2.402;2023-03-31T00:33:33;574.88;;;133.43;;
48881;SDS011;57063;51.406;-2.402;2023-03-31T00:35:59;573.92;;;133.88;;
48881;SDS011;57063;51.406;-2.402;2023-03-31T00:38:26;582.15;;;136.65;;
48881;SDS011;57063;51.406;-2.402;2023-03-31T00:40:54;575.42;;;134.05;;
48881;SDS011;57063;51.406;-2.402;2023-03-31T00:43:25;584.08;;;136.98;;
48881;SDS011;57063;51.406;-2.402;2023-03-31T00:46:00;591.13;;;139.52;;
48881;SDS011;57063;51.406;-2.402;2023-03-31T00:48:31;585.67;;;137.10;;
48881;SDS011;57063;51.406;-2.402;2023-03-31T00:50:58;594.42;;;139.48;;
48881;SDS011;57063;51.406;-2.402;2023-03-31T00:53:29;580.00;;;136.30;;
48881;SDS011;57063;51.406;-2.402;2023-03-31T00:55:58;585.60;;;137.45;;
48881;SDS011;57063;51.406;-2.402;2023-03-31T00:58:37;596.53;;;139.10;;
48881;SDS011;57063;51.406;-2.402;2023-03-31T01:01:07;605.05;;;137.93;;
48881;SDS011;57063;51.406;-2.402;2023-03-31T01:03:43;591.33;;;134.90;;
48881;SDS011;57063;51.406;-2.402;2023-03-31T01:06:10;594.58;;;135.88;;
48881;SDS011;57063;51.406;-2.402;2023-03-31T01:08:38;579.97;;;137.02;;
48881;SDS011;57063;51.406;-2.402;2023-03-31T01:11:08;588.47;;;142.32;;
48881;SDS011;57063;51.406;-2.402;2023-03-31T01:14:12;604.88;;;140.15;;
48881;SDS011;57063;51.406;-2.402;2023-03-31T01:17:07;585.00;;;137.50;;
48881;SDS011;57063;51.406;-2.402;2023-03-31T01:28:42;590.17;;;135.70;;
48881;SDS011;57063;51.406;-2.402;2023-03-31T01:42:32;602.28;;;139.70;;
48881;SDS011;57063;51.406;-2.402;2023-03-31T01:47:46;585.28;;;137.90;;
48881;SDS011;57063;51.406;-2.402;2023-03-31T01:50:23;595.83;;;139.07;;
48881;SDS011;57063;51.406;-2.402;2023-03-31T01:53:14;593.25;;;136.65;;
48881;SDS011;57063;51.406;-2.402;2023-03-31T02:00:44;583.47;;;134.98;;
48881;SDS011;57063;51.406;-2.402;2023-03-31T02:03:21;589.13;;;135.45;;
48881;SDS011;57063;51.406;-2.402;2023-03-31T02:05:51;584.85;;;136.73;;
48881;SDS011;57063;51.406;-2.402;2023-03-31T02:08:28;588.28;;;137.55;;
48881;SDS011;57063;51.406;-2.402;2023-03-31T02:10:59;592.92;;;139.80;;
48881;SDS011;57063;51.406;-2.402;2023-03-31T02:13:25;576.90;;;130.70;;
48881;SDS011;57063;51.406;-2.402;2023-03-31T02:15:54;585.35;;;135.10;;
48881;SDS011;57063;51.406;-2.402;2023-03-31T02:18:26;577.67;;;131.93;;
48881;SDS011;57063;51.406;-2.402;2023-03-31T02:20:54;575.33;;;134.20;;
48881;SDS011;57063;51.406;-2.402;2023-03-31T02:23:23;571.53;;;131.98;;
48881;SDS011;57063;51.406;-2.402;2023-03-31T02:25:54;587.03;;;137.73;;
48881;SDS011;57063;51.406;-2.402;2023-03-31T02:28:26;578.33;;;133.65;;
48881;SDS011;57063;51.406;-2.402;2023-03-31T02:31:02;581.20;;;134.18;;
48881;SDS011;57063;51.406;-2.402;2023-03-31T02:33:30;573.85;;;133.45;;
48881;SDS011;57063;51.406;-2.402;2023-03-31T02:35:56;570.08;;;130.82;;
48881;SDS011;57063;51.406;-2.402;2023-03-31T02:38:23;575.47;;;131.75;;
48881;SDS011;57063;51.406;-2.402;2023-03-31T02:40:48;573.08;;;131.30;;
48881;SDS011;57063;51.406;-2.402;2023-03-31T02:43:14;588.15;;;139.57;;
48881;SDS011;57063;51.406;-2.402;2023-03-31T02:45:47;578.80;;;135.93;;
48881;SDS011;57063;51.406;-2.402;2023-03-31T02:50:55;579.15;;;134.00;;
48881;SDS011;57063;51.406;-2.402;2023-03-31T02:53:29;572.17;;;130.07;;
48881;SDS011;57063;51.406;-2.402;2023-03-31T02:59:18;577.05;;;133.35;;
48881;SDS011;57063;51.406;-2.402;2023-03-31T03:07:33;565.65;;;130.98;;
48881;SDS011;57063;51.406;-2.402;2023-03-31T03:10:48;576.30;;;132.88;;
48881;SDS011;57063;51.406;-2.402;2023-03-31T03:15:57;567.83;;;128.18;;
48881;SDS011;57063;51.406;-2.402;2023-03-31T03:19:21;569.83;;;131.10;;
48881;SDS011;57063;51.406;-2.402;2023-03-31T03:22:46;580.38;;;133.30;;
48881;SDS011;57063;51.406;-2.402;2023-03-31T03:26:10;578.08;;;131.73;;
48881;SDS011;57063;51.406;-2.402;2023-03-31T03:29:34;576.22;;;130.95;;
48881;SDS011;57063;51.406;-2.402;2023-03-31T03:32:58;580.47;;;132.13;;
48881;SDS011;57063;51.406;-2.402;2023-03-31T03:36:22;576.47;;;129.20;;
48881;SDS011;57063;51.406;-2.402;2023-03-31T03:39:45;575.15;;;131.45;;
48881;SDS011;57063;51.406;-2.402;2023-03-31T03:43:10;579.00;;;131.27;;
48881;SDS011;57063;51.406;-2.402;2023-03-31T03:46:34;575.10;;;133.05;;
48881;SDS011;57063;51.406;-2.402;2023-03-31T03:49:58;575.00;;;131.15;;
48881;SDS011;57063;51.406;-2.402;2023-03-31T03:53:25;579.03;;;132.40;;
48881;SDS011;57063;51.406;-2.402;2023-03-31T03:56:49;579.55;;;131.05;;
48881;SDS011;57063;51.406;-2.402;2023-03-31T04:00:13;586.80;;;137.02;;
48881;SDS011;57063;51.406;-2.402;2023-03-31T04:03:38;579.70;;;131.07;;
48881;SDS011;57063;51.406;-2.402;2023-03-31T04:07:01;588.60;;;133.18;;
48881;SDS011;57063;51.406;-2.402;2023-03-31T04:10:25;583.83;;;136.13;;
48881;SDS011;57063;51.406;-2.402;2023-03-31T04:13:49;579.40;;;131.23;;
48881;SDS011;57063;51.406;-2.402;2023-03-31T04:17:10;591.95;;;134.93;;
48881;SDS011;57063;51.406;-2.402;2023-03-31T04:20:14;581.80;;;135.85;;
48881;SDS011;57063;51.406;-2.402;2023-03-31T04:23:28;583.17;;;130.80;;
48881;SDS011;57063;51.406;-2.402;2023-03-31T04:26:07;581.33;;;133.02;;
48881;SDS011;57063;51.406;-2.402;2023-03-31T04:28:34;576.78;;;133.52;;
48881;SDS011;57063;51.406;-2.402;2023-03-31T04:31:01;579.55;;;133.40;;
48881;SDS011;57063;51.406;-2.402;2023-03-31T04:33:27;571.65;;;132.73;;
48881;SDS011;57063;51.406;-2.402;2023-03-31T04:35:53;581.67;;;135.45;;
48881;SDS011;57063;51.406;-2.402;2023-03-31T04:38:19;589.83;;;142.63;;
48881;SDS011;57063;51.406;-2.402;2023-03-31T04:40:47;578.33;;;133.23;;
48881;SDS011;57063;51.406;-2.402;2023-03-31T04:43:14;584.17;;;138.23;;
48881;SDS011;57063;51.406;-2.402;2023-03-31T04:45:40;593.30;;;135.40;;
48881;SDS011;57063;51.406;-2.402;2023-03-31T04:48:06;578.63;;;132.60;;
48881;SDS011;57063;51.406;-2.402;2023-03-31T04:50:32;575.47;;;134.52;;
48881;SDS011;57063;51.406;-2.402;2023-03-31T04:52:57;578.78;;;135.38;;
48881;SDS011;57063;51.406;-2.402;2023-03-31T04:55:23;587.53;;;137.70;;
48881;SDS011;57063;51.406;-2.402;2023-03-31T04:57:49;582.15;;;136.57;;
48881;SDS011;57063;51.406;-2.402;2023-03-31T05:00:15;579.08;;;136.02;;
48881;SDS011;57063;51.406;-2.402;2023-03-31T05:02:42;574.28;;;134.15;;
48881;SDS011;57063;51.406;-2.402;2023-03-31T05:05:07;569.03;;;132.45;;
48881;SDS011;57063;51.406;-2.402;2023-03-31T05:07:34;574.05;;;133.73;;
48881;SDS011;57063;51.406;-2.402;2023-03-31T05:09:59;586.85;;;142.65;;
48881;SDS011;57063;51.406;-2.402;2023-03-31T05:12:25;571.13;;;134.70;;
48881;SDS011;57063;51.406;-2.402;2023-03-31T05:14:50;576.75;;;136.93;;
48881;SDS011;57063;51.406;-2.402;2023-03-31T05:17:16;577.83;;;137.23;;
48881;SDS011;57063;51.406;-2.402;2023-03-31T05:19:42;576.28;;;135.10;;
48881;SDS011;57063;51.406;-2.402;2023-03-31T05:22:07;576.88;;;135.48;;
48881;SDS011;57063;51.406;-2.402;2023-03-31T05:24:33;572.35;;;134.48;;
48881;SDS011;57063;51.406;-2.402;2023-03-31T05:26:59;577.03;;;135.75;;
48881;SDS011;57063;51.406;-2.402;2023-03-31T05:29:24;574.10;;;135.35;;
48881;SDS011;57063;51.406;-2.402;2023-03-31T05:31:50;579.00;;;136.20;;
48881;SDS011;57063;51.406;-2.402;2023-03-31T05:34:17;577.65;;;135.35;;
48881;SDS011;57063;51.406;-2.402;2023-03-31T05:36:42;569.50;;;134.50;;
48881;SDS011;57063;51.406;-2.402;2023-03-31T05:39:08;571.53;;;133.98;;
48881;SDS011;57063;51.406;-2.402;2023-03-31T05:41:33;566.45;;;132.10;;
48881;SDS011;57063;51.406;-2.402;2023-03-31T05:43:59;572.65;;;135.00;;
48881;SDS011;57063;51.406;-2.402;2023-03-31T05:46:26;576.05;;;133.77;;
48881;SDS011;57063;51.406;-2.402;2023-03-31T05:48:51;564.78;;;130.38;;
48881;SDS011;57063;51.406;-2.402;2023-03-31T05:51:17;580.83;;;136.38;;
48881;SDS011;57063;51.406;-2.402;2023-03-31T05:53:42;579.75;;;134.45;;
48881;SDS011;57063;51.406;-2.402;2023-03-31T05:56:08;569.53;;;132.55;;
48881;SDS011;57063;51.406;-2.402;2023-03-31T05:58:35;573.05;;;133.15;;
48881;SDS011;57063;51.406;-2.402;2023-03-31T06:01:08;585.10;;;135.43;;
48881;SDS011;57063;51.406;-2.402;2023-03-31T06:03:36;576.58;;;132.85;;
48881;SDS011;57063;51.406;-2.402;2023-03-31T06:06:05;573.60;;;133.73;;
48881;SDS011;57063;51.406;-2.402;2023-03-31T06:08:32;570.92;;;133.00;;
48881;SDS011;57063;51.406;-2.402;2023-03-31T06:10:58;578.10;;;135.68;;
48881;SDS011;57063;51.406;-2.402;2023-03-31T06:13:24;576.08;;;133.85;;
48881;SDS011;57063;51.406;-2.402;2023-03-31T06:15:56;574.58;;;134.63;;
48881;SDS011;57063;51.406;-2.402;2023-03-31T06:18:23;581.90;;;135.52;;
48881;SDS011;57063;51.406;-2.402;2023-03-31T06:20:52;574.17;;;136.57;;
48881;SDS011;57063;51.406;-2.402;2023-03-31T06:23:18;585.97;;;136.07;;
48881;SDS011;57063;51.406;-2.402;2023-03-31T06:25:44;572.45;;;132.63;;
48881;SDS011;57063;51.406;-2.402;2023-03-31T06:28:10;571.47;;;135.20;;
48881;SDS011;57063;51.406;-2.402;2023-03-31T06:30:35;569.80;;;134.10;;
48881;SDS011;57063;51.406;-2.402;2023-03-31T06:33:01;578.15;;;133.93;;
48881;SDS011;57063;51.406;-2.402;2023-03-31T06:35:26;568.70;;;133.88;;
48881;SDS011;57063;51.406;-2.402;2023-03-31T06:37:51;573.88;;;134.93;;
48881;SDS011;57063;51.406;-2.402;2023-03-31T06:40:17;583.15;;;135.55;;
48881;SDS011;57063;51.406;-2.402;2023-03-31T06:42:43;571.47;;;133.00;;
48881;SDS011;57063;51.406;-2.402;2023-03-31T06:45:09;570.20;;;132.75;;
48881;SDS011;57063;51.406;-2.402;2023-03-31T06:47:34;572.00;;;132.50;;
48881;SDS011;57063;51.406;-2.402;2023-03-31T06:50:02;568.63;;;132.27;;
48881;SDS011;57063;51.406;-2.402;2023-03-31T06:52:28;571.40;;;135.43;;
48881;SDS011;57063;51.406;-2.402;2023-03-31T06:54:54;564.45;;;131.57;;
48881;SDS011;57063;51.406;-2.402;2023-03-31T06:57:20;568.85;;;132.93;;
48881;SDS011;57063;51.406;-2.402;2023-03-31T06:59:45;568.80;;;132.80;;
48881;SDS011;57063;51.406;-2.402;2023-03-31T07:02:11;568.28;;;132.63;;
48881;SDS011;57063;51.406;-2.402;2023-03-31T07:04:36;563.97;;;131.88;;
48881;SDS011;57063;51.406;-2.402;2023-03-31T07:07:01;567.88;;;132.55;;
48881;SDS011;57063;51.406;-2.402;2023-03-31T07:09:27;588.38;;;140.43;;
48881;SDS011;57063;51.406;-2.402;2023-03-31T07:11:52;583.83;;;139.32;;
48881;SDS011;57063;51.406;-2.402;2023-03-31T07:14:17;583.03;;;137.82;;
48881;SDS011;57063;51.406;-2.402;2023-03-31T07:16:43;578.47;;;133.60;;
48881;SDS011;57063;51.406;-2.402;2023-03-31T07:19:08;570.40;;;131.75;;
48881;SDS011;57063;51.406;-2.402;2023-03-31T07:21:35;574.42;;;133.57;;
48881;SDS011;57063;51.406;-2.402;2023-03-31T07:24:03;572.67;;;133.07;;
48881;SDS011;57063;51.406;-2.402;2023-03-31T07:26:28;580.03;;;135.52;;
48881;SDS011;57063;51.406;-2.402;2023-03-31T07:28:54;573.67;;;132.93;;
48881;SDS011;57063;51.406;-2.402;2023-03-31T07:31:21;583.40;;;136.18;;
48881;SDS011;57063;51.406;-2.402;2023-03-31T07:33:47;582.58;;;135.15;;
48881;SDS011;57063;51.406;-2.402;2023-03-31T07:36:13;575.30;;;133.50;;
48881;SDS011;57063;51.406;-2.402;2023-03-31T07:38:42;569.22;;;134.35;;
48881;SDS011;57063;51.406;-2.402;2023-03-31T07:41:11;573.30;;;132.48;;
48881;SDS011;57063;51.406;-2.402;2023-03-31T07:43:37;578.10;;;133.93;;
48881;SDS011;57063;51.406;-2.402;2023-03-31T07:46:03;581.08;;;136.00;;
48881;SDS011;57063;51.406;-2.402;2023-03-31T07:48:31;578.30;;;135.30;;
48881;SDS011;57063;51.406;-2.402;2023-03-31T07:50:57;579.20;;;137.32;;
48881;SDS011;57063;51.406;-2.402;2023-03-31T07:53:23;576.72;;;136.27;;
48881;SDS011;57063;51.406;-2.402;2023-03-31T07:55:48;572.67;;;135.15;;
48881;SDS011;57063;51.406;-2.402;2023-03-31T07:58:14;592.60;;;142.20;;
48881;SDS011;57063;51.406;-2.402;2023-03-31T08:00:39;572.33;;;134.40;;
48881;SDS011;57063;51.406;-2.402;2023-03-31T08:03:05;576.38;;;137.13;;
48881;SDS011;57063;51.406;-2.402;2023-03-31T08:05:31;582.53;;;136.80;;
48881;SDS011;57063;51.406;-2.402;2023-03-31T08:07:56;580.20;;;138.90;;
48881;SDS011;57063;51.406;-2.402;2023-03-31T08:10:23;573.97;;;136.00;;
48881;SDS011;57063;51.406;-2.402;2023-03-31T08:12:50;571.95;;;135.90;;
48881;SDS011;57063;51.406;-2.402;2023-03-31T08:15:16;575.42;;;136.35;;
48881;SDS011;57063;51.406;-2.402;2023-03-31T08:17:41;571.30;;;133.68;;
48881;SDS011;57063;51.406;-2.402;2023-03-31T08:20:07;570.80;;;135.90;;
48881;SDS011;57063;51.406;-2.402;2023-03-31T08:22:34;582.95;;;139.40;;
48881;SDS011;57063;51.406;-2.402;2023-03-31T08:25:01;580.42;;;138.63;;
48881;SDS011;57063;51.406;-2.402;2023-03-31T08:27:27;574.00;;;138.50;;
48881;SDS011;57063;51.406;-2.402;2023-03-31T08:29:53;568.03;;;133.98;;
48881;SDS011;57063;51.406;-2.402;2023-03-31T08:32:20;570.55;;;133.77;;
48881;SDS011;57063;51.406;-2.402;2023-03-31T08:34:47;575.33;;;136.88;;
48881;SDS011;57063;51.406;-2.402;2023-03-31T08:37:12;570.30;;;135.02;;
48881;SDS011;57063;51.406;-2.402;2023-03-31T08:39:38;578.58;;;138.95;;
48881;SDS011;57063;51.406;-2.402;2023-03-31T08:42:14;593.08;;;145.27;;
48881;SDS011;57063;51.406;-2.402;2023-03-31T08:45:00;581.83;;;138.23;;
48881;SDS011;57063;51.406;-2.402;2023-03-31T08:47:31;582.58;;;138.45;;
48881;SDS011;57063;51.406;-2.402;2023-03-31T08:50:15;587.83;;;143.93;;
48881;SDS011;57063;51.406;-2.402;2023-03-31T08:52:44;578.67;;;138.98;;
48881;SDS011;57063;51.406;-2.402;2023-03-31T08:55:24;571.33;;;132.75;;
48881;SDS011;57063;51.406;-2.402;2023-03-31T09:00:39;580.42;;;140.63;;
48881;SDS011;57063;51.406;-2.402;2023-03-31T09:03:29;582.97;;;139.93;;
48881;SDS011;57063;51.406;-2.402;2023-03-31T09:06:10;580.30;;;138.85;;
48881;SDS011;57063;51.406;-2.402;2023-03-31T09:08:41;589.72;;;142.07;;
48881;SDS011;57063;51.406;-2.402;2023-03-31T09:11:14;589.28;;;145.98;;
48881;SDS011;57063;51.406;-2.402;2023-03-31T09:14:04;578.67;;;143.80;;
48881;SDS011;57063;51.406;-2.402;2023-03-31T09:16:53;582.33;;;144.18;;
48881;SDS011;57063;51.406;-2.402;2023-03-31T09:19:48;599.40;;;150.95;;
48881;SDS011;57063;51.406;-2.402;2023-03-31T09:22:18;589.40;;;148.45;;
48881;SDS011;57063;51.406;-2.402;2023-03-31T09:24:54;588.05;;;149.63;;
48881;SDS011;57063;51.406;-2.402;2023-03-31T09:27:30;593.88;;;150.82;;
48881;SDS011;57063;51.406;-2.402;2023-03-31T09:30:09;596.03;;;154.25;;
48881;SDS011;57063;51.406;-2.402;2023-03-31T09:32:42;596.83;;;154.38;;
48881;SDS011;57063;51.406;-2.402;2023-03-31T09:37:46;591.15;;;155.45;;
48881;SDS011;57063;51.406;-2.402;2023-03-31T09:40:18;594.30;;;156.57;;
48881;SDS011;57063;51.406;-2.402;2023-03-31T09:42:46;608.90;;;164.13;;
48881;SDS011;57063;51.406;-2.402;2023-03-31T09:45:17;591.95;;;154.05;;
48881;SDS011;57063;51.406;-2.402;2023-03-31T09:47:51;595.10;;;157.90;;
48881;SDS011;57063;51.406;-2.402;2023-03-31T09:50:19;592.90;;;156.80;;
48881;SDS011;57063;51.406;-2.402;2023-03-31T09:52:52;593.30;;;158.32;;
48881;SDS011;57063;51.406;-2.402;2023-03-31T09:58:13;594.90;;;157.10;;
48881;SDS011;57063;51.406;-2.402;2023-03-31T10:00:40;595.70;;;157.93;;
48881;SDS011;57063;51.406;-2.402;2023-03-31T10:03:09;598.80;;;161.07;;
48881;SDS011;57063;51.406;-2.402;2023-03-31T10:05:38;596.85;;;162.50;;
48881;SDS011;57063;51.406;-2.402;2023-03-31T10:08:17;599.60;;;159.98;;
48881;SDS011;57063;51.406;-2.402;2023-03-31T10:13:52;593.67;;;157.35;;
48881;SDS011;57063;51.406;-2.402;2023-03-31T10:16:34;595.55;;;158.65;;
48881;SDS011;57063;51.406;-2.402;2023-03-31T10:21:44;606.30;;;173.15;;
48881;SDS011;57063;51.406;-2.402;2023-03-31T10:24:16;605.80;;;157.05;;
48881;SDS011;57063;51.406;-2.402;2023-03-31T10:29:12;588.95;;;152.10;;
48881;SDS011;57063;51.406;-2.402;2023-03-31T10:31:40;593.65;;;151.95;;
48881;SDS011;57063;51.406;-2.402;2023-03-31T10:34:11;594.05;;;154.07;;
48881;SDS011;57063;51.406;-2.402;2023-03-31T10:36:47;592.88;;;150.75;;
48881;SDS011;57063;51.406;-2.402;2023-03-31T10:39:16;595.45;;;151.18;;
48881;SDS011;57063;51.406;-2.402;2023-03-31T10:41:47;599.10;;;154.02;;
48881;SDS011;57063;51.406;-2.402;2023-03-31T10:44:31;589.50;;;154.40;;
48881;SDS011;57063;51.406;-2.402;2023-03-31T10:47:15;598.40;;;154.60;;
